sensor_id;sensor_type;location;lat;lon;timestamp;pressure;altitude;pressure_sealevel;temperature;humidity
31595;BME280;18200;48.726;8.892;2023-02-15T00:03:52;98013.22;;;10.66;42.83
31595;BME280;18200;48.726;8.892;2023-02-15T00:07:53;98009.16;;;10.60;43.40
31595;BME280;18200;48.726;8.892;2023-02-15T00:11:53;98006.63;;;10.55;43.68
31595;BME280;18200;48.726;8.892;2023-02-15T00:15:53;98005.38;;;10.52;43.66
31595;BME280;18200;48.726;8.892;2023-02-15T00:19:54;97997.69;;;11.01;42.70
31595;BME280;18200;48.726;8.892;2023-02-15T00:23:54;97999.13;;;10.98;42.85
31595;BME280;18200;48.726;8.892;2023-02-15T00:27:54;97987.56;;;11.18;42.69
31595;BME280;18200;48.726;8.892;2023-02-15T00:31:55;97987.84;;;11.05;42.50
31595;BME280;18200;48.726;8.892;2023-02-15T00:35:58;97986.56;;;11.23;42.96
31595;BME280;18200;48.726;8.892;2023-02-15T00:39:59;97984.81;;;10.85;42.81
31595;BME280;18200;48.726;8.892;2023-02-15T00:43:59;97992.94;;;10.98;42.75
31595;BME280;18200;48.726;8.892;2023-02-15T00:48:00;97988.63;;;11.05;42.68
31595;BME280;18200;48.726;8.892;2023-02-15T00:52:00;97979.03;;;10.96;41.88
31595;BME280;18200;48.726;8.892;2023-02-15T00:56:01;97974.97;;;11.10;42.13
31595;BME280;18200;48.726;8.892;2023-02-15T01:00:02;97973.19;;;11.35;41.68
31595;BME280;18200;48.726;8.892;2023-02-15T01:04:03;97977.06;;;11.25;41.23
31595;BME280;18200;48.726;8.892;2023-02-15T01:08:03;97981.88;;;11.20;40.93
31595;BME280;18200;48.726;8.892;2023-02-15T01:12:04;97971.81;;;11.49;40.60
31595;BME280;18200;48.726;8.892;2023-02-15T01:16:05;97975.06;;;11.55;40.75
31595;BME280;18200;48.726;8.892;2023-02-15T01:20:06;97984.63;;;11.32;40.66
31595;BME280;18200;48.726;8.892;2023-02-15T01:24:14;97989.03;;;11.16;40.30
31595;BME280;18200;48.726;8.892;2023-02-15T01:28:14;97982.47;;;11.05;40.80
31595;BME280;18200;48.726;8.892;2023-02-15T01:32:15;97981.81;;;11.28;40.51
31595;BME280;18200;48.726;8.892;2023-02-15T01:36:17;97976.69;;;10.94;40.58
31595;BME280;18200;48.726;8.892;2023-02-15T01:40:18;97971.72;;;11.05;40.50
31595;BME280;18200;48.726;8.892;2023-02-15T01:44:57;97975.66;;;11.07;40.94
31595;BME280;18200;48.726;8.892;2023-02-15T01:49:03;97965.59;;;10.96;40.35
31595;BME280;18200;48.726;8.892;2023-02-15T01:53:25;97968.94;;;10.92;40.22
31595;BME280;18200;48.726;8.892;2023-02-15T01:57:27;97971.69;;;10.84;39.50
31595;BME280;18200;48.726;8.892;2023-02-15T02:01:28;97974.25;;;10.80;40.03
31595;BME280;18200;48.726;8.892;2023-02-15T02:05:31;97962.38;;;10.81;40.26
31595;BME280;18200;48.726;8.892;2023-02-15T02:09:32;97955.81;;;11.12;39.92
31595;BME280;18200;48.726;8.892;2023-02-15T02:13:33;97959.56;;;10.78;39.56
31595;BME280;18200;48.726;8.892;2023-02-15T02:21:45;97951.75;;;10.64;40.07
31595;BME280;18200;48.726;8.892;2023-02-15T02:30:19;97950.94;;;10.43;39.56
31595;BME280;18200;48.726;8.892;2023-02-15T02:34:57;97960.00;;;10.59;39.60
31595;BME280;18200;48.726;8.892;2023-02-15T02:39:06;97959.16;;;10.38;40.01
31595;BME280;18200;48.726;8.892;2023-02-15T02:43:27;97945.00;;;10.58;39.81
31595;BME280;18200;48.726;8.892;2023-02-15T02:47:43;97944.59;;;10.39;40.02
31595;BME280;18200;48.726;8.892;2023-02-15T02:51:46;97947.97;;;10.36;39.81
31595;BME280;18200;48.726;8.892;2023-02-15T02:55:51;97946.00;;;10.16;39.25
31595;BME280;18200;48.726;8.892;2023-02-15T02:59:54;97945.91;;;10.33;39.64
31595;BME280;18200;48.726;8.892;2023-02-15T03:04:03;97942.41;;;10.41;39.92
31595;BME280;18200;48.726;8.892;2023-02-15T03:08:06;97941.13;;;10.01;38.89
31595;BME280;18200;48.726;8.892;2023-02-15T03:12:22;97939.78;;;9.78;39.68
31595;BME280;18200;48.726;8.892;2023-02-15T03:16:24;97933.13;;;9.84;40.54
31595;BME280;18200;48.726;8.892;2023-02-15T03:20:29;97941.03;;;9.89;39.59
31595;BME280;18200;48.726;8.892;2023-02-15T03:24:37;97935.97;;;9.96;40.15
31595;BME280;18200;48.726;8.892;2023-02-15T03:28:42;97932.47;;;9.95;40.22
31595;BME280;18200;48.726;8.892;2023-02-15T03:32:44;97938.19;;;9.94;39.65
31595;BME280;18200;48.726;8.892;2023-02-15T03:40:56;97937.50;;;9.97;39.15
31595;BME280;18200;48.726;8.892;2023-02-15T03:45:16;97946.69;;;9.41;38.93
31595;BME280;18200;48.726;8.892;2023-02-15T03:49:25;97940.63;;;9.70;40.20
31595;BME280;18200;48.726;8.892;2023-02-15T03:53:27;97940.59;;;9.78;40.61
31595;BME280;18200;48.726;8.892;2023-02-15T03:57:28;97941.75;;;9.69;40.08
31595;BME280;18200;48.726;8.892;2023-02-15T04:02:43;97934.19;;;9.62;40.22
31595;BME280;18200;48.726;8.892;2023-02-15T04:06:23;97925.22;;;9.50;40.04
31595;BME280;18200;48.726;8.892;2023-02-15T04:10:23;97926.69;;;9.04;40.35
31595;BME280;18200;48.726;8.892;2023-02-15T04:14:42;97919.56;;;9.34;40.15
31595;BME280;18200;48.726;8.892;2023-02-15T04:19:01;97924.28;;;9.37;40.57
31595;BME280;18200;48.726;8.892;2023-02-15T04:23:20;97918.72;;;9.51;40.08
31595;BME280;18200;48.726;8.892;2023-02-15T04:27:44;97921.31;;;9.21;40.58
31595;BME280;18200;48.726;8.892;2023-02-15T04:31:45;97913.09;;;9.26;40.89
31595;BME280;18200;48.726;8.892;2023-02-15T04:35:45;97919.31;;;9.65;40.44
31595;BME280;18200;48.726;8.892;2023-02-15T04:39:45;97918.69;;;9.68;39.60
31595;BME280;18200;48.726;8.892;2023-02-15T04:43:46;97924.13;;;9.25;40.33
31595;BME280;18200;48.726;8.892;2023-02-15T04:47:46;97930.16;;;9.30;40.63
31595;BME280;18200;48.726;8.892;2023-02-15T04:51:46;97923.34;;;9.24;40.74
31595;BME280;18200;48.726;8.892;2023-02-15T04:55:47;97912.50;;;9.12;40.24
31595;BME280;18200;48.726;8.892;2023-02-15T04:59:47;97914.56;;;8.98;40.30
31595;BME280;18200;48.726;8.892;2023-02-15T05:03:48;97912.03;;;8.93;40.63
31595;BME280;18200;48.726;8.892;2023-02-15T05:07:48;97909.34;;;9.10;40.93
31595;BME280;18200;48.726;8.892;2023-02-15T05:11:48;97898.28;;;9.03;40.25
31595;BME280;18200;48.726;8.892;2023-02-15T05:15:50;97898.63;;;8.93;41.34
31595;BME280;18200;48.726;8.892;2023-02-15T05:19:51;97896.56;;;9.07;40.67
31595;BME280;18200;48.726;8.892;2023-02-15T05:23:51;97892.19;;;8.77;41.20
31595;BME280;18200;48.726;8.892;2023-02-15T05:27:52;97895.16;;;8.67;41.68
31595;BME280;18200;48.726;8.892;2023-02-15T05:32:13;97902.44;;;8.75;42.52
31595;BME280;18200;48.726;8.892;2023-02-15T05:36:13;97899.88;;;8.53;41.98
31595;BME280;18200;48.726;8.892;2023-02-15T05:40:14;97903.22;;;8.11;42.35
31595;BME280;18200;48.726;8.892;2023-02-15T05:44:14;97908.97;;;8.35;42.76
31595;BME280;18200;48.726;8.892;2023-02-15T05:48:15;97904.47;;;8.78;42.02
31595;BME280;18200;48.726;8.892;2023-02-15T05:52:16;97903.38;;;8.71;42.27
31595;BME280;18200;48.726;8.892;2023-02-15T05:56:16;97904.44;;;8.52;42.10
31595;BME280;18200;48.726;8.892;2023-02-15T06:00:17;97911.06;;;8.46;42.31
31595;BME280;18200;48.726;8.892;2023-02-15T06:04:17;97913.13;;;8.58;41.75
31595;BME280;18200;48.726;8.892;2023-02-15T06:08:18;97918.31;;;8.54;42.04
31595;BME280;18200;48.726;8.892;2023-02-15T06:12:18;97919.38;;;8.28;42.28
31595;BME280;18200;48.726;8.892;2023-02-15T06:16:19;97919.88;;;8.55;41.84
31595;BME280;18200;48.726;8.892;2023-02-15T06:20:19;97919.13;;;8.89;41.75
31595;BME280;18200;48.726;8.892;2023-02-15T06:24:19;97923.34;;;8.65;42.53
31595;BME280;18200;48.726;8.892;2023-02-15T06:28:20;97919.56;;;8.57;42.17
31595;BME280;18200;48.726;8.892;2023-02-15T06:32:20;97918.78;;;8.82;41.66
31595;BME280;18200;48.726;8.892;2023-02-15T06:36:20;97926.03;;;8.73;42.22
31595;BME280;18200;48.726;8.892;2023-02-15T06:40:21;97934.25;;;8.68;42.30
31595;BME280;18200;48.726;8.892;2023-02-15T06:44:21;97930.28;;;8.66;42.40
31595;BME280;18200;48.726;8.892;2023-02-15T06:48:22;97939.28;;;8.78;41.63
31595;BME280;18200;48.726;8.892;2023-02-15T06:52:22;97941.81;;;8.75;42.11
31595;BME280;18200;48.726;8.892;2023-02-15T06:56:22;97940.09;;;8.96;42.20
31595;BME280;18200;48.726;8.892;2023-02-15T07:00:23;97943.38;;;8.67;41.84
31595;BME280;18200;48.726;8.892;2023-02-15T07:04:23;97943.13;;;8.29;40.81
31595;BME280;18200;48.726;8.892;2023-02-15T07:08:24;97938.16;;;8.45;42.74
31595;BME280;18200;48.726;8.892;2023-02-15T07:12:25;97932.34;;;8.69;41.83
31595;BME280;18200;48.726;8.892;2023-02-15T07:16:41;97936.47;;;9.00;41.99
31595;BME280;18200;48.726;8.892;2023-02-15T07:20:41;97931.41;;;9.07;41.38
31595;BME280;18200;48.726;8.892;2023-02-15T07:24:42;97935.19;;;9.06;41.07
31595;BME280;18200;48.726;8.892;2023-02-15T07:28:42;97939.16;;;8.92;42.24
31595;BME280;18200;48.726;8.892;2023-02-15T07:32:42;97927.78;;;9.03;41.74
31595;BME280;18200;48.726;8.892;2023-02-15T07:37:01;97937.41;;;9.21;41.38
31595;BME280;18200;48.726;8.892;2023-02-15T07:41:04;97933.09;;;9.37;41.54
31595;BME280;18200;48.726;8.892;2023-02-15T07:45:05;97941.47;;;9.45;41.80
31595;BME280;18200;48.726;8.892;2023-02-15T07:49:06;97946.13;;;9.65;41.47
31595;BME280;18200;48.726;8.892;2023-02-15T07:53:06;97942.00;;;9.76;40.88
31595;BME280;18200;48.726;8.892;2023-02-15T07:57:07;97941.31;;;9.96;40.73
31595;BME280;18200;48.726;8.892;2023-02-15T08:01:07;97935.97;;;9.96;40.23
31595;BME280;18200;48.726;8.892;2023-02-15T08:05:08;97937.94;;;10.07;40.63
31595;BME280;18200;48.726;8.892;2023-02-15T08:09:08;97944.69;;;10.31;40.70
31595;BME280;18200;48.726;8.892;2023-02-15T08:13:09;97939.53;;;10.46;40.61
31595;BME280;18200;48.726;8.892;2023-02-15T08:17:09;97930.09;;;10.40;40.12
31595;BME280;18200;48.726;8.892;2023-02-15T08:21:09;97930.38;;;10.47;40.85
31595;BME280;18200;48.726;8.892;2023-02-15T08:25:10;97938.25;;;10.73;40.71
31595;BME280;18200;48.726;8.892;2023-02-15T08:29:11;97933.47;;;10.99;40.40
31595;BME280;18200;48.726;8.892;2023-02-15T08:33:11;97922.63;;;11.08;40.81
31595;BME280;18200;48.726;8.892;2023-02-15T08:37:11;97919.84;;;11.37;41.05
31595;BME280;18200;48.726;8.892;2023-02-15T08:41:13;97915.53;;;11.24;41.22
31595;BME280;18200;48.726;8.892;2023-02-15T08:45:14;97913.50;;;11.53;41.74
31595;BME280;18200;48.726;8.892;2023-02-15T08:49:17;97916.75;;;12.04;40.87
31595;BME280;18200;48.726;8.892;2023-02-15T08:53:18;97919.78;;;12.51;40.44
31595;BME280;18200;48.726;8.892;2023-02-15T08:57:21;97915.75;;;13.08;40.08
31595;BME280;18200;48.726;8.892;2023-02-15T09:01:24;97909.06;;;13.46;39.82
31595;BME280;18200;48.726;8.892;2023-02-15T09:05:24;97905.53;;;13.73;38.99
31595;BME280;18200;48.726;8.892;2023-02-15T09:09:25;97898.28;;;14.24;38.40
31595;BME280;18200;48.726;8.892;2023-02-15T09:13:25;97898.69;;;14.57;38.01
31595;BME280;18200;48.726;8.892;2023-02-15T09:17:25;97893.06;;;15.00;37.61
31595;BME280;18200;48.726;8.892;2023-02-15T09:21:26;97882.38;;;15.45;37.30
31595;BME280;18200;48.726;8.892;2023-02-15T09:25:27;97880.03;;;15.89;37.05
31595;BME280;18200;48.726;8.892;2023-02-15T09:29:28;97876.03;;;16.06;36.03
31595;BME280;18200;48.726;8.892;2023-02-15T09:33:28;97870.34;;;16.63;35.87
31595;BME280;18200;48.726;8.892;2023-02-15T09:37:30;97864.72;;;16.75;35.65
31595;BME280;18200;48.726;8.892;2023-02-15T09:46:04;97863.09;;;16.71;35.31
31595;BME280;18200;48.726;8.892;2023-02-15T09:55:28;97857.88;;;17.95;34.66
31595;BME280;18200;48.726;8.892;2023-02-15T09:59:22;97857.19;;;18.05;34.65
31595;BME280;18200;48.726;8.892;2023-02-15T10:03:52;97856.94;;;18.28;33.73
31595;BME280;18200;48.726;8.892;2023-02-15T10:09:06;97857.56;;;18.54;33.00
31595;BME280;18200;48.726;8.892;2023-02-15T10:21:50;97841.63;;;20.38;30.51
31595;BME280;18200;48.726;8.892;2023-02-15T10:26:15;97841.63;;;20.48;30.48
31595;BME280;18200;48.726;8.892;2023-02-15T10:34:38;97839.91;;;20.89;29.00
31595;BME280;18200;48.726;8.892;2023-02-15T10:51:47;97810.59;;;23.79;25.61
31595;BME280;18200;48.726;8.892;2023-02-15T10:56:06;97817.28;;;23.78;25.47
31595;BME280;18200;48.726;8.892;2023-02-15T11:00:14;97827.69;;;23.37;26.36
31595;BME280;18200;48.726;8.892;2023-02-15T11:04:36;97821.69;;;23.72;26.10
31595;BME280;18200;48.726;8.892;2023-02-15T11:08:43;97816.34;;;24.11;25.05
31595;BME280;18200;48.726;8.892;2023-02-15T11:12:45;97809.13;;;24.21;24.58
31595;BME280;18200;48.726;8.892;2023-02-15T11:16:50;97804.66;;;23.57;25.81
31595;BME280;18200;48.726;8.892;2023-02-15T11:21:01;97800.63;;;23.88;25.06
31595;BME280;18200;48.726;8.892;2023-02-15T11:25:16;97798.16;;;22.50;26.34
31595;BME280;18200;48.726;8.892;2023-02-15T11:33:35;97792.63;;;22.91;25.85
31595;BME280;18200;48.726;8.892;2023-02-15T11:37:40;97789.50;;;24.22;24.46
31595;BME280;18200;48.726;8.892;2023-02-15T11:41:52;97783.53;;;24.27;23.74
31595;BME280;18200;48.726;8.892;2023-02-15T11:45:54;97783.34;;;24.97;23.24
31595;BME280;18200;48.726;8.892;2023-02-15T11:49:54;97783.47;;;23.58;24.89
31595;BME280;18200;48.726;8.892;2023-02-15T11:53:56;97783.44;;;23.35;25.88
31595;BME280;18200;48.726;8.892;2023-02-15T12:02:21;97775.41;;;23.74;24.93
31595;BME280;18200;48.726;8.892;2023-02-15T12:06:25;97777.78;;;24.61;23.55
31595;BME280;18200;48.726;8.892;2023-02-15T12:10:30;97771.94;;;23.93;25.40
31595;BME280;18200;48.726;8.892;2023-02-15T12:14:48;97768.34;;;23.73;25.19
31595;BME280;18200;48.726;8.892;2023-02-15T12:18:49;97760.72;;;24.07;24.99
31595;BME280;18200;48.726;8.892;2023-02-15T12:23:12;97757.44;;;24.78;24.52
31595;BME280;18200;48.726;8.892;2023-02-15T12:27:26;97760.97;;;26.14;23.44
31595;BME280;18200;48.726;8.892;2023-02-15T12:31:36;97758.81;;;26.92;22.68
31595;BME280;18200;48.726;8.892;2023-02-15T12:35:39;97754.56;;;25.37;23.18
31595;BME280;18200;48.726;8.892;2023-02-15T12:39:51;97750.13;;;26.65;21.71
31595;BME280;18200;48.726;8.892;2023-02-15T12:44:18;97749.94;;;27.26;20.87
31595;BME280;18200;48.726;8.892;2023-02-15T12:48:20;97735.28;;;27.88;20.45
31595;BME280;18200;48.726;8.892;2023-02-15T12:56:26;97730.78;;;27.82;19.58
31595;BME280;18200;48.726;8.892;2023-02-15T13:00:28;97724.03;;;28.51;18.10
31595;BME280;18200;48.726;8.892;2023-02-15T13:04:31;97733.25;;;27.54;18.98
31595;BME280;18200;48.726;8.892;2023-02-15T13:08:35;97728.66;;;27.86;18.24
31595;BME280;18200;48.726;8.892;2023-02-15T13:12:46;97714.44;;;28.43;17.48
31595;BME280;18200;48.726;8.892;2023-02-15T13:16:48;97716.50;;;28.73;17.14
31595;BME280;18200;48.726;8.892;2023-02-15T13:20:49;97708.44;;;27.89;18.70
31595;BME280;18200;48.726;8.892;2023-02-15T13:24:54;97700.47;;;28.59;17.88
31595;BME280;18200;48.726;8.892;2023-02-15T13:28:59;97700.31;;;28.63;18.35
31595;BME280;18200;48.726;8.892;2023-02-15T13:33:06;97699.00;;;30.14;17.51
31595;BME280;18200;48.726;8.892;2023-02-15T13:37:20;97708.28;;;26.95;20.33
31595;BME280;18200;48.726;8.892;2023-02-15T13:46:33;97689.28;;;30.54;18.01
31595;BME280;18200;48.726;8.892;2023-02-15T14:13:02;97675.31;;;29.37;19.61
31595;BME280;18200;48.726;8.892;2023-02-15T14:21:17;97680.53;;;30.20;17.63
31595;BME280;18200;48.726;8.892;2023-02-15T14:25:25;97677.44;;;29.33;19.39
31595;BME280;18200;48.726;8.892;2023-02-15T14:33:55;97676.31;;;29.70;18.51
31595;BME280;18200;48.726;8.892;2023-02-15T14:42:45;97686.19;;;29.80;18.49
31595;BME280;18200;48.726;8.892;2023-02-15T14:47:10;97679.06;;;29.61;18.85
31595;BME280;18200;48.726;8.892;2023-02-15T14:55:45;97698.25;;;27.01;20.42
31595;BME280;18200;48.726;8.892;2023-02-15T14:59:52;97684.66;;;29.97;18.36
31595;BME280;18200;48.726;8.892;2023-02-15T15:04:04;97694.53;;;30.43;17.67
31595;BME280;18200;48.726;8.892;2023-02-15T15:08:22;97696.03;;;30.62;16.96
31595;BME280;18200;48.726;8.892;2023-02-15T15:16:46;97692.09;;;29.02;17.84
31595;BME280;18200;48.726;8.892;2023-02-15T15:20:51;97691.31;;;28.71;18.09
31595;BME280;18200;48.726;8.892;2023-02-15T15:24:59;97691.88;;;27.89;19.14
31595;BME280;18200;48.726;8.892;2023-02-15T15:29:01;97694.81;;;28.50;18.53
31595;BME280;18200;48.726;8.892;2023-02-15T15:37:46;97699.50;;;25.85;22.59
31595;BME280;18200;48.726;8.892;2023-02-15T15:42:01;97710.59;;;23.57;25.10
31595;BME280;18200;48.726;8.892;2023-02-15T15:51:32;97700.09;;;22.98;25.05
31595;BME280;18200;48.726;8.892;2023-02-15T15:55:33;97714.66;;;22.65;24.21
31595;BME280;18200;48.726;8.892;2023-02-15T15:59:34;97708.53;;;22.84;24.68
31595;BME280;18200;48.726;8.892;2023-02-15T16:03:35;97717.75;;;22.97;24.39
31595;BME280;18200;48.726;8.892;2023-02-15T16:07:35;97708.28;;;23.98;23.40
31595;BME280;18200;48.726;8.892;2023-02-15T16:11:37;97712.13;;;23.58;23.78
31595;BME280;18200;48.726;8.892;2023-02-15T16:15:47;97712.41;;;23.13;24.57
31595;BME280;18200;48.726;8.892;2023-02-15T16:19:51;97721.75;;;22.89;25.18
31595;BME280;18200;48.726;8.892;2023-02-15T16:24:03;97729.75;;;22.80;24.65
31595;BME280;18200;48.726;8.892;2023-02-15T16:28:13;97721.03;;;22.85;24.96
31595;BME280;18200;48.726;8.892;2023-02-15T16:32:22;97721.75;;;22.89;24.66
31595;BME280;18200;48.726;8.892;2023-02-15T16:36:27;97731.81;;;22.99;25.07
31595;BME280;18200;48.726;8.892;2023-02-15T16:40:38;97736.16;;;22.67;25.38
31595;BME280;18200;48.726;8.892;2023-02-15T16:44:40;97744.06;;;22.61;25.69
31595;BME280;18200;48.726;8.892;2023-02-15T16:48:46;97743.28;;;22.61;25.41
31595;BME280;18200;48.726;8.892;2023-02-15T16:52:52;97751.97;;;22.52;26.42
31595;BME280;18200;48.726;8.892;2023-02-15T16:56:52;97750.72;;;21.79;27.20
31595;BME280;18200;48.726;8.892;2023-02-15T17:00:58;97745.44;;;21.61;27.56
31595;BME280;18200;48.726;8.892;2023-02-15T17:09:16;97765.03;;;20.80;28.93
31595;BME280;18200;48.726;8.892;2023-02-15T17:13:22;97766.16;;;20.89;28.98
31595;BME280;18200;48.726;8.892;2023-02-15T17:17:23;97767.94;;;20.38;29.75
31595;BME280;18200;48.726;8.892;2023-02-15T17:21:35;97767.56;;;20.14;30.01
31595;BME280;18200;48.726;8.892;2023-02-15T17:25:40;97768.78;;;19.92;29.70
31595;BME280;18200;48.726;8.892;2023-02-15T17:29:50;97773.84;;;19.48;30.31
31595;BME280;18200;48.726;8.892;2023-02-15T17:33:51;97786.25;;;17.77;33.12
31595;BME280;18200;48.726;8.892;2023-02-15T17:38:21;97787.97;;;18.61;32.02
31595;BME280;18200;48.726;8.892;2023-02-15T17:42:21;97784.97;;;18.87;32.04
31595;BME280;18200;48.726;8.892;2023-02-15T17:46:23;97779.16;;;19.02;31.13
31595;BME280;18200;48.726;8.892;2023-02-15T17:50:26;97782.94;;;18.63;32.07
31595;BME280;18200;48.726;8.892;2023-02-15T17:54:27;97782.06;;;18.44;32.15
31595;BME280;18200;48.726;8.892;2023-02-15T17:58:47;97790.22;;;18.44;32.41
31595;BME280;18200;48.726;8.892;2023-02-15T18:02:47;97785.22;;;18.57;31.57
31595;BME280;18200;48.726;8.892;2023-02-15T18:07:09;97788.06;;;18.13;32.34
31595;BME280;18200;48.726;8.892;2023-02-15T18:11:30;97783.00;;;18.12;32.64
31595;BME280;18200;48.726;8.892;2023-02-15T18:15:39;97782.06;;;17.46;32.03
31595;BME280;18200;48.726;8.892;2023-02-15T18:19:41;97784.25;;;17.27;34.28
31595;BME280;18200;48.726;8.892;2023-02-15T18:23:43;97784.34;;;17.37;33.15
31595;BME280;18200;48.726;8.892;2023-02-15T18:27:43;97799.56;;;17.49;32.56
31595;BME280;18200;48.726;8.892;2023-02-15T18:31:47;97789.88;;;17.48;32.46
31595;BME280;18200;48.726;8.892;2023-02-15T18:35:48;97792.59;;;17.11;33.09
31595;BME280;18200;48.726;8.892;2023-02-15T18:39:51;97797.31;;;16.51;33.63
31595;BME280;18200;48.726;8.892;2023-02-15T18:43:53;97795.03;;;16.27;34.95
31595;BME280;18200;48.726;8.892;2023-02-15T18:47:54;97792.22;;;16.76;33.93
31595;BME280;18200;48.726;8.892;2023-02-15T18:51:55;97797.16;;;16.41;34.36
31595;BME280;18200;48.726;8.892;2023-02-15T18:55:55;97792.31;;;16.27;34.54
31595;BME280;18200;48.726;8.892;2023-02-15T18:59:58;97787.22;;;15.96;34.46
31595;BME280;18200;48.726;8.892;2023-02-15T19:03:59;97785.16;;;16.12;34.10
31595;BME280;18200;48.726;8.892;2023-02-15T19:08:00;97779.66;;;15.82;34.30
31595;BME280;18200;48.726;8.892;2023-02-15T19:12:01;97785.44;;;15.81;34.79
31595;BME280;18200;48.726;8.892;2023-02-15T19:16:02;97779.06;;;15.43;35.53
31595;BME280;18200;48.726;8.892;2023-02-15T19:20:04;97777.50;;;15.23;35.79
31595;BME280;18200;48.726;8.892;2023-02-15T19:24:08;97777.50;;;15.23;36.21
31595;BME280;18200;48.726;8.892;2023-02-15T19:28:19;97780.88;;;15.39;35.37
31595;BME280;18200;48.726;8.892;2023-02-15T19:32:23;97779.38;;;14.77;35.42
31595;BME280;18200;48.726;8.892;2023-02-15T19:36:23;97775.94;;;15.22;35.61
31595;BME280;18200;48.726;8.892;2023-02-15T19:40:26;97771.88;;;14.90;36.02
31595;BME280;18200;48.726;8.892;2023-02-15T19:44:27;97762.78;;;14.79;36.29
31595;BME280;18200;48.726;8.892;2023-02-15T19:48:28;97767.59;;;14.32;37.01
31595;BME280;18200;48.726;8.892;2023-02-15T19:52:28;97766.06;;;14.50;36.69
31595;BME280;18200;48.726;8.892;2023-02-15T19:56:29;97762.78;;;14.60;36.70
31595;BME280;18200;48.726;8.892;2023-02-15T20:00:31;97765.22;;;14.46;36.59
31595;BME280;18200;48.726;8.892;2023-02-15T20:04:32;97762.94;;;14.48;37.24
31595;BME280;18200;48.726;8.892;2023-02-15T20:08:33;97765.56;;;14.10;37.08
31595;BME280;18200;48.726;8.892;2023-02-15T20:12:33;97766.66;;;14.24;37.50
31595;BME280;18200;48.726;8.892;2023-02-15T20:16:33;97768.53;;;14.39;37.64
31595;BME280;18200;48.726;8.892;2023-02-15T20:20:42;97761.75;;;13.95;37.46
31595;BME280;18200;48.726;8.892;2023-02-15T20:24:43;97766.47;;;14.33;37.29
31595;BME280;18200;48.726;8.892;2023-02-15T20:28:44;97758.19;;;14.26;37.26
31595;BME280;18200;48.726;8.892;2023-02-15T20:32:46;97764.19;;;14.35;36.38
31595;BME280;18200;48.726;8.892;2023-02-15T20:36:47;97763.78;;;14.52;36.24
31595;BME280;18200;48.726;8.892;2023-02-15T20:40:47;97770.75;;;13.83;36.45
31595;BME280;18200;48.726;8.892;2023-02-15T20:45:24;97756.41;;;13.48;38.15
31595;BME280;18200;48.726;8.892;2023-02-15T20:49:26;97767.19;;;13.79;37.70
31595;BME280;18200;48.726;8.892;2023-02-15T20:53:27;97762.09;;;13.93;37.54
31595;BME280;18200;48.726;8.892;2023-02-15T20:57:28;97774.25;;;13.68;37.93
31595;BME280;18200;48.726;8.892;2023-02-15T21:01:28;97764.75;;;13.74;37.47
31595;BME280;18200;48.726;8.892;2023-02-15T21:05:32;97765.47;;;13.56;38.15
31595;BME280;18200;48.726;8.892;2023-02-15T21:09:32;97764.75;;;13.74;37.69
31595;BME280;18200;48.726;8.892;2023-02-15T21:13:33;97767.22;;;13.33;37.45
31595;BME280;18200;48.726;8.892;2023-02-15T21:17:34;97755.38;;;13.21;38.69
31595;BME280;18200;48.726;8.892;2023-02-15T21:21:35;97766.59;;;12.53;39.68
31595;BME280;18200;48.726;8.892;2023-02-15T21:25:36;97747.69;;;12.65;39.31
31595;BME280;18200;48.726;8.892;2023-02-15T21:29:36;97748.25;;;12.86;39.92
31595;BME280;18200;48.726;8.892;2023-02-15T21:33:37;97752.06;;;13.12;39.27
31595;BME280;18200;48.726;8.892;2023-02-15T21:37:38;97751.53;;;13.07;38.46
31595;BME280;18200;48.726;8.892;2023-02-15T21:41:40;97756.25;;;12.55;39.58
31595;BME280;18200;48.726;8.892;2023-02-15T21:46:10;97750.13;;;12.70;39.20
31595;BME280;18200;48.726;8.892;2023-02-15T21:50:30;97747.75;;;12.13;39.46
31595;BME280;18200;48.726;8.892;2023-02-15T21:54:49;97761.19;;;12.53;39.80
31595;BME280;18200;48.726;8.892;2023-02-15T21:58:50;97760.97;;;12.58;38.32
31595;BME280;18200;48.726;8.892;2023-02-15T22:02:52;97764.25;;;12.79;39.12
31595;BME280;18200;48.726;8.892;2023-02-15T22:06:54;97747.78;;;12.40;38.53
31595;BME280;18200;48.726;8.892;2023-02-15T22:10:55;97756.34;;;11.66;40.86
31595;BME280;18200;48.726;8.892;2023-02-15T22:14:55;97755.53;;;11.90;40.20
31595;BME280;18200;48.726;8.892;2023-02-15T22:18:56;97750.69;;;12.48;39.31
31595;BME280;18200;48.726;8.892;2023-02-15T22:22:56;97756.75;;;12.44;39.41
31595;BME280;18200;48.726;8.892;2023-02-15T22:26:57;97762.22;;;12.08;39.67
31595;BME280;18200;48.726;8.892;2023-02-15T22:30:58;97751.41;;;12.32;39.81
31595;BME280;18200;48.726;8.892;2023-02-15T22:34:58;97750.56;;;12.04;40.08
31595;BME280;18200;48.726;8.892;2023-02-15T22:38:59;97749.59;;;11.97;40.17
31595;BME280;18200;48.726;8.892;2023-02-15T22:43:02;97757.34;;;11.74;40.49
31595;BME280;18200;48.726;8.892;2023-02-15T22:47:04;97755.78;;;11.73;40.88
31595;BME280;18200;48.726;8.892;2023-02-15T22:51:04;97741.63;;;11.64;41.86
31595;BME280;18200;48.726;8.892;2023-02-15T22:55:05;97752.84;;;11.78;41.51
31595;BME280;18200;48.726;8.892;2023-02-15T22:59:10;97762.63;;;12.22;39.65
31595;BME280;18200;48.726;8.892;2023-02-15T23:03:19;97753.03;;;11.97;40.46
31595;BME280;18200;48.726;8.892;2023-02-15T23:07:19;97754.59;;;12.10;39.85
31595;BME280;18200;48.726;8.892;2023-02-15T23:11:22;97763.63;;;11.78;40.81
31595;BME280;18200;48.726;8.892;2023-02-15T23:15:22;97765.63;;;11.81;40.41
31595;BME280;18200;48.726;8.892;2023-02-15T23:19:23;97762.06;;;11.77;40.35
31595;BME280;18200;48.726;8.892;2023-02-15T23:23:41;97756.19;;;11.63;39.89
31595;BME280;18200;48.726;8.892;2023-02-15T23:27:41;97759.78;;;11.43;41.37
31595;BME280;18200;48.726;8.892;2023-02-15T23:31:57;97766.72;;;11.32;41.04
31595;BME280;18200;48.726;8.892;2023-02-15T23:35:58;97768.31;;;11.33;41.70
31595;BME280;18200;48.726;8.892;2023-02-15T23:39:59;97766.09;;;11.83;41.05
31595;BME280;18200;48.726;8.892;2023-02-15T23:44:18;97758.78;;;11.72;41.16
31595;BME280;18200;48.726;8.892;2023-02-15T23:48:30;97757.25;;;11.71;40.48